createdAt,value
2017-10-02T00:02:05.679Z,-84
2017-10-02T00:04:34.366Z,-85
2017-10-02T00:07:09.290Z,-85
2017-10-02T00:09:38.768Z,-85
2017-10-02T00:12:07.454Z,-85
2017-10-02T00:14:36.142Z,-85
2017-10-02T00:17:04.867Z,-85
2017-10-02T00:19:34.323Z,-85
2017-10-02T00:22:04.667Z,-85
2017-10-02T00:24:34.229Z,-85
2017-10-02T00:27:03.905Z,-85
2017-10-02T00:29:33.375Z,-85
2017-10-02T00:32:02.064Z,-85
2017-10-02T00:34:30.759Z,-85
2017-10-02T00:36:59.463Z,-85
2017-10-02T00:39:34.399Z,-85
2017-10-02T00:42:03.855Z,-84
2017-10-02T00:44:32.555Z,-83
2017-10-02T00:47:01.251Z,-84
2017-10-02T00:49:29.966Z,-85
2017-10-02T00:51:59.445Z,-84
2017-10-02T00:54:34.312Z,-85
2017-10-02T00:57:03.870Z,-85
2017-10-02T00:59:38.883Z,-84
2017-10-02T01:02:08.046Z,-85
2017-10-02T01:04:36.715Z,-85
2017-10-02T01:07:06.183Z,-85
2017-10-02T01:09:34.883Z,-85
2017-10-02T01:12:05.224Z,-84
2017-10-02T01:14:33.919Z,-83
2017-10-02T01:17:03.382Z,-83
2017-10-02T01:19:32.084Z,-84
2017-10-02T01:22:01.563Z,-84
2017-10-02T01:24:36.523Z,-83
2017-10-02T01:27:05.214Z,-84
2017-10-02T01:29:40.865Z,-83
2017-10-02T01:32:09.563Z,-83
2017-10-02T01:34:39.027Z,-84
2017-10-02T01:37:07.744Z,-84
2017-10-02T01:39:36.453Z,-84
2017-10-02T01:42:05.168Z,-84
2017-10-02T01:44:33.871Z,-84
2017-10-02T01:47:02.599Z,-84
2017-10-02T01:49:32.063Z,-83
2017-10-02T01:52:00.752Z,-85
2017-10-02T01:54:29.467Z,-84
2017-10-02T01:56:58.159Z,-84
2017-10-02T01:59:26.860Z,-85
2017-10-02T02:01:55.552Z,-84
2017-10-02T02:04:24.259Z,-84
2017-10-02T02:06:52.947Z,-84
2017-10-02T02:09:21.706Z,-83
2017-10-02T02:11:51.155Z,-84
2017-10-02T02:14:26.118Z,-84
2017-10-02T02:16:54.893Z,-83
2017-10-02T02:19:23.559Z,-84
2017-10-02T02:21:52.282Z,-84
2017-10-02T02:24:21.753Z,-84
2017-10-02T02:26:50.439Z,-84
2017-10-02T02:29:19.947Z,-84
2017-10-02T02:31:48.642Z,-84
2017-10-02T02:34:17.340Z,-84
2017-10-02T02:36:49.044Z,-84
2017-10-02T02:39:17.757Z,-84
2017-10-02T02:41:46.442Z,-84
2017-10-02T02:44:15.144Z,-84
2017-10-02T02:46:43.848Z,-84
2017-10-02T02:49:18.618Z,-84
2017-10-02T02:51:47.307Z,-84
2017-10-02T02:54:23.218Z,-84
2017-10-02T02:56:51.899Z,-84
2017-10-02T02:59:26.879Z,-84
2017-10-02T03:01:55.563Z,-84
2017-10-02T03:04:25.911Z,-84
2017-10-02T03:06:54.604Z,-84
2017-10-02T03:09:23.296Z,-84
2017-10-02T03:11:51.993Z,-83
2017-10-02T03:14:26.914Z,-84
2017-10-02T03:16:55.630Z,-84
2017-10-02T03:19:30.608Z,-84
2017-10-02T03:21:59.344Z,-84
2017-10-02T03:24:28.063Z,-84
2017-10-02T03:26:56.784Z,-86
2017-10-02T03:29:25.488Z,-84
2017-10-02T03:32:00.333Z,-84
2017-10-02T03:34:29.798Z,-84
2017-10-02T03:36:58.507Z,-84
2017-10-02T03:39:27.186Z,-84
2017-10-02T03:41:55.887Z,-85
2017-10-02T03:44:25.344Z,-84
2017-10-02T03:46:54.049Z,-84
2017-10-02T03:49:22.739Z,-84
2017-10-02T03:51:51.450Z,-84
2017-10-02T03:54:26.437Z,-84
2017-10-02T03:56:55.219Z,-83
2017-10-02T03:59:30.156Z,-83
2017-10-02T04:01:58.870Z,-84
2017-10-02T04:04:27.556Z,-84
2017-10-02T04:06:56.239Z,-84
2017-10-02T04:09:25.840Z,-84
2017-10-02T04:12:00.750Z,-84
2017-10-02T04:14:29.481Z,-84
2017-10-02T04:17:29.396Z,-83
2017-10-02T04:19:58.104Z,-84
2017-10-02T04:22:27.538Z,-84
2017-10-02T04:24:56.237Z,-84
2017-10-02T04:27:24.927Z,-83
2017-10-02T04:29:58.423Z,-83
2017-10-02T04:32:27.122Z,-84
2017-10-02T04:34:56.361Z,-84
2017-10-02T04:37:25.809Z,-84
2017-10-02T04:39:54.499Z,-83
2017-10-02T04:42:23.214Z,-84
2017-10-02T04:44:51.923Z,-83
2017-10-02T04:47:21.467Z,-84
2017-10-02T04:49:50.191Z,-84
2017-10-02T04:52:18.901Z,-84
2017-10-02T04:54:53.823Z,-84
2017-10-02T04:57:22.503Z,-85
2017-10-02T04:59:51.206Z,-84
2017-10-02T05:02:19.900Z,-85
2017-10-02T05:04:54.898Z,-85
2017-10-02T05:07:23.591Z,-84
2017-10-02T05:09:52.284Z,-84
2017-10-02T05:12:21.004Z,-84
2017-10-02T05:14:49.707Z,-84
2017-10-02T05:17:18.396Z,-85
2017-10-02T05:19:47.859Z,-84
2017-10-02T05:22:16.554Z,-84
2017-10-02T05:24:45.280Z,-85
2017-10-02T05:27:14.767Z,-85
2017-10-02T05:29:43.472Z,-85
2017-10-02T05:32:12.159Z,-85
2017-10-02T05:34:40.864Z,-85
2017-10-02T05:37:09.572Z,-86
2017-10-02T05:39:39.032Z,-85
2017-10-02T05:42:12.545Z,-86
2017-10-02T05:44:41.235Z,-84
2017-10-02T05:47:09.959Z,-85
2017-10-02T05:49:39.419Z,-86
2017-10-02T05:52:08.125Z,-86
2017-10-02T05:54:36.814Z,-85
2017-10-02T05:57:05.500Z,-86
2017-10-02T05:59:34.251Z,-86
2017-10-02T06:02:02.995Z,-86
2017-10-02T06:04:32.588Z,-86
2017-10-02T06:07:01.501Z,-86
2017-10-02T06:09:30.194Z,-86
2017-10-02T06:11:59.054Z,-85
2017-10-02T06:14:30.489Z,-86
2017-10-02T06:16:59.182Z,-86
2017-10-02T06:19:29.658Z,-88
2017-10-02T06:21:59.273Z,-87
2017-10-02T06:24:27.958Z,-87
2017-10-02T06:26:58.317Z,-88
2017-10-02T06:29:33.243Z,-88
2017-10-02T06:32:08.247Z,-88
2017-10-02T06:34:36.944Z,-88
2017-10-02T06:37:05.649Z,-88
2017-10-02T06:39:34.343Z,-87
2017-10-02T06:42:09.176Z,-87
2017-10-02T06:44:38.784Z,-86
2017-10-02T06:47:07.516Z,-88
2017-10-02T06:49:36.652Z,-88
2017-10-02T06:52:05.583Z,-89
2017-10-02T06:54:35.373Z,-87
2017-10-02T06:57:11.105Z,-88
2017-10-02T06:59:49.246Z,-88
2017-10-02T07:02:17.973Z,-87
2017-10-02T07:04:52.928Z,-87
2017-10-02T07:07:22.436Z,-85
2017-10-02T07:09:51.920Z,-86
2017-10-02T07:12:20.654Z,-86
2017-10-02T07:14:49.384Z,-86
2017-10-02T07:17:24.174Z,-85
2017-10-02T07:19:52.863Z,-85
2017-10-02T07:22:21.574Z,-86
2017-10-02T07:24:50.309Z,-85
2017-10-02T07:27:29.355Z,-85
2017-10-02T07:30:04.443Z,-86
2017-10-02T07:32:33.135Z,-86
2017-10-02T07:35:01.840Z,-86
2017-10-02T07:37:36.832Z,-86
2017-10-02T07:40:11.729Z,-86
2017-10-02T07:42:40.423Z,-86
2017-10-02T07:45:09.264Z,-84
2017-10-02T07:47:37.966Z,-85
2017-10-02T07:50:07.466Z,-85
2017-10-02T07:52:36.928Z,-85
2017-10-02T07:55:12.759Z,-85
2017-10-02T07:57:41.591Z,-86
2017-10-02T08:00:10.920Z,-85
2017-10-02T08:02:41.320Z,-85
2017-10-02T08:05:10.019Z,-85
2017-10-02T08:07:44.969Z,-85
2017-10-02T08:10:14.424Z,-85
2017-10-02T08:12:43.111Z,-86
2017-10-02T08:15:13.954Z,-85
2017-10-02T08:17:48.747Z,-87
2017-10-02T08:20:17.453Z,-87
2017-10-02T08:22:46.150Z,-86
2017-10-02T08:25:14.843Z,-87
2017-10-02T08:27:43.548Z,-87
2017-10-02T08:30:13.015Z,-85
2017-10-02T08:32:41.712Z,-87
2017-10-02T08:35:10.404Z,-86
2017-10-02T08:37:39.116Z,-86
2017-10-02T08:40:08.562Z,-85
2017-10-02T08:42:37.314Z,-87
2017-10-02T08:45:13.273Z,-88
2017-10-02T08:47:42.753Z,-88
2017-10-02T08:50:11.444Z,-88
2017-10-02T08:52:40.139Z,-86
2017-10-02T08:55:08.923Z,-86
2017-10-02T08:57:37.615Z,-86
2017-10-02T09:00:10.407Z,-85
2017-10-02T09:02:39.116Z,-85
2017-10-02T09:05:08.659Z,-87
2017-10-02T09:07:38.212Z,-86
2017-10-02T09:10:07.807Z,-86
2017-10-02T09:12:36.499Z,-86
2017-10-02T09:15:11.517Z,-86
2017-10-02T09:17:40.231Z,-86
2017-10-02T09:20:15.119Z,-85
2017-10-02T09:22:43.903Z,-86
2017-10-02T09:25:18.828Z,-85
2017-10-02T09:27:47.535Z,-85
2017-10-02T09:30:23.120Z,-86
2017-10-02T09:32:53.844Z,-86
2017-10-02T09:35:22.534Z,-85
2017-10-02T09:37:51.218Z,-86
2017-10-02T09:40:19.922Z,-86
2017-10-02T09:42:48.615Z,-86
2017-10-02T09:45:19.331Z,-86
2017-10-02T09:47:48.034Z,-86
2017-10-02T09:50:17.587Z,-85
2017-10-02T09:52:48.172Z,-85
2017-10-02T09:55:16.871Z,-86
2017-10-02T09:57:45.568Z,-86
2017-10-02T10:00:14.259Z,-87
2017-10-02T10:02:42.956Z,-87
2017-10-02T10:05:11.639Z,-88
2017-10-02T10:07:40.360Z,-87
2017-10-02T10:10:09.059Z,-88
2017-10-02T10:12:37.747Z,-88
2017-10-02T10:15:06.447Z,-88
2017-10-02T10:17:35.132Z,-88
2017-10-02T10:20:03.819Z,-87
2017-10-02T10:22:39.010Z,-87
2017-10-02T10:25:08.483Z,-87
2017-10-02T10:27:37.938Z,-86
2017-10-02T10:30:06.654Z,-86
2017-10-02T10:32:41.563Z,-86
2017-10-02T10:35:10.243Z,-86
2017-10-02T10:37:38.932Z,-88
2017-10-02T10:40:07.620Z,-87
2017-10-02T10:42:36.336Z,-87
2017-10-02T10:45:05.028Z,-89
2017-10-02T10:47:35.486Z,-86
2017-10-02T10:50:05.815Z,-86
2017-10-02T10:52:34.495Z,-88
2017-10-02T10:55:03.173Z,-84
2017-10-02T10:57:39.659Z,-86
2017-10-02T11:00:14.500Z,-86
2017-10-02T11:02:51.707Z,-85
2017-10-02T11:05:26.908Z,-85
2017-10-02T11:07:56.906Z,-85
2017-10-02T11:10:25.611Z,-86
2017-10-02T11:12:55.179Z,-85
2017-10-02T11:15:23.858Z,-85
2017-10-02T11:17:52.558Z,-86
2017-10-02T11:20:21.247Z,-87
2017-10-02T11:22:49.984Z,-85
2017-10-02T11:25:24.964Z,-87
2017-10-02T11:27:53.696Z,-84
2017-10-02T11:30:22.393Z,-84
2017-10-02T11:32:57.198Z,-85
2017-10-02T11:35:26.675Z,-83
2017-10-02T11:37:56.115Z,-85
2017-10-02T11:40:31.703Z,-86
2017-10-02T11:43:06.674Z,-85
2017-10-02T11:45:36.143Z,-85
2017-10-02T11:48:04.819Z,-85
2017-10-02T11:50:33.521Z,-85
2017-10-02T11:53:02.192Z,-87
2017-10-02T11:55:30.879Z,-85
2017-10-02T11:57:59.592Z,-86
2017-10-02T12:00:29.080Z,-86
2017-10-02T12:02:57.764Z,-86
2017-10-02T12:05:32.602Z,-87
2017-10-02T12:08:01.291Z,-86
2017-10-02T12:10:29.999Z,-87
2017-10-02T12:12:59.447Z,-85
2017-10-02T12:15:29.765Z,-86
2017-10-02T12:18:04.612Z,-86
2017-10-02T12:20:34.282Z,-85
2017-10-02T12:23:03.063Z,-85
2017-10-02T12:25:32.635Z,-86
2017-10-02T12:28:07.537Z,-86
2017-10-02T12:30:36.308Z,-86
2017-10-02T12:33:05.105Z,-87
2017-10-02T12:35:40.023Z,-86
2017-10-02T12:38:08.747Z,-85
2017-10-02T12:40:44.279Z,-85
2017-10-02T12:43:13.057Z,-86
2017-10-02T12:45:42.752Z,-85
2017-10-02T12:48:12.400Z,-85
2017-10-02T12:50:41.113Z,-85
2017-10-02T12:53:09.787Z,-84
2017-10-02T12:55:44.633Z,-85
2017-10-02T12:58:14.068Z,-84
2017-10-02T13:00:49.014Z,-85
2017-10-02T13:03:17.690Z,-86
2017-10-02T13:05:52.672Z,-84
2017-10-02T13:08:26.427Z,-84
2017-10-02T13:10:55.959Z,-84
2017-10-02T13:13:24.644Z,-85
2017-10-02T13:15:53.322Z,-86
2017-10-02T13:18:22.012Z,-86
2017-10-02T13:20:50.690Z,-85
2017-10-02T13:23:19.379Z,-86
2017-10-02T13:25:48.872Z,-86
2017-10-02T13:28:17.585Z,-87
2017-10-02T13:30:46.310Z,-87
2017-10-02T13:33:21.210Z,-86
2017-10-02T13:35:50.016Z,-85
2017-10-02T13:38:25.007Z,-86
2017-10-02T13:40:53.750Z,-85
2017-10-02T13:43:22.428Z,-84
2017-10-02T13:45:51.123Z,-85
2017-10-02T13:48:20.568Z,-86
2017-10-02T13:50:49.434Z,-86
2017-10-02T13:53:18.216Z,-87
2017-10-02T13:55:53.071Z,-84
2017-10-02T13:58:22.523Z,-86
2017-10-02T14:00:57.418Z,-85
2017-10-02T14:03:32.417Z,-85
2017-10-02T14:06:01.127Z,-86
2017-10-02T14:08:29.816Z,-85
2017-10-02T14:10:58.572Z,-85
2017-10-02T14:13:27.353Z,-86
2017-10-02T14:16:01.384Z,-85
2017-10-02T14:18:30.247Z,-86
2017-10-02T14:21:05.376Z,-84
2017-10-02T14:23:40.400Z,-85
2017-10-02T14:26:10.933Z,-85
2017-10-02T14:28:45.756Z,-84
2017-10-02T14:31:15.204Z,-85
2017-10-02T14:33:44.747Z,-84
2017-10-02T14:36:13.427Z,-85
2017-10-02T14:38:42.110Z,-84
2017-10-02T14:41:11.695Z,-83
2017-10-02T14:43:42.115Z,-84
2017-10-02T14:46:11.701Z,-83
2017-10-02T14:48:40.408Z,-84
2017-10-02T14:51:10.982Z,-85
2017-10-02T14:53:46.596Z,-85
2017-10-02T14:56:15.313Z,-84
2017-10-02T14:58:50.432Z,-84
2017-10-02T15:01:20.007Z,-87
2017-10-02T15:03:48.688Z,-85
2017-10-02T15:06:18.305Z,-85
2017-10-02T15:08:46.985Z,-86
2017-10-02T15:11:22.708Z,-84
2017-10-02T15:13:52.415Z,-86
2017-10-02T15:16:21.113Z,-87
2017-10-02T15:18:49.828Z,-87
2017-10-02T15:21:18.521Z,-88
2017-10-02T15:23:54.240Z,-83
2017-10-02T15:26:22.926Z,-86
2017-10-02T15:28:57.895Z,-87
2017-10-02T15:31:27.462Z,-85
2017-10-02T15:34:02.411Z,-88
2017-10-02T15:36:31.165Z,-86
2017-10-02T15:39:06.111Z,-88
2017-10-02T15:41:34.791Z,-86
2017-10-02T15:44:03.561Z,-86
2017-10-02T15:46:32.248Z,-86
2017-10-02T15:49:01.700Z,-85
2017-10-02T15:51:32.029Z,-85
2017-10-02T15:54:00.712Z,-86
2017-10-02T15:56:35.678Z,-85
2017-10-02T15:59:04.363Z,-84
2017-10-02T16:01:33.047Z,-84
2017-10-02T16:04:01.748Z,-83
2017-10-02T16:06:31.208Z,-84
2017-10-02T16:08:59.896Z,-84
2017-10-02T16:11:28.568Z,-83
2017-10-02T16:13:57.279Z,-84
2017-10-02T16:16:32.100Z,-83
2017-10-02T16:19:00.829Z,-84
2017-10-02T16:21:29.508Z,-83
2017-10-02T16:24:05.254Z,-83
2017-10-02T16:26:36.947Z,-84
2017-10-02T16:29:05.650Z,-84
2017-10-02T16:31:34.332Z,-84
2017-10-02T16:34:03.136Z,-85
2017-10-02T16:36:31.831Z,-85
2017-10-02T16:39:00.518Z,-84
2017-10-02T16:41:29.231Z,-85
2017-10-02T16:44:04.125Z,-85
2017-10-02T16:46:32.811Z,-83
2017-10-02T16:49:01.497Z,-86
2017-10-02T16:51:30.200Z,-85
2017-10-02T16:53:58.888Z,-82
2017-10-02T16:56:27.574Z,-82
2017-10-02T16:59:02.547Z,-83
2017-10-02T17:01:31.242Z,-82
2017-10-02T17:04:06.873Z,-82
2017-10-02T17:06:41.768Z,-83
2017-10-02T17:09:10.460Z,-84
2017-10-02T17:11:45.456Z,-84
2017-10-02T17:14:14.964Z,-83
2017-10-02T17:16:44.443Z,-84
2017-10-02T17:19:13.135Z,-83
2017-10-02T17:21:48.000Z,-83
2017-10-02T17:24:22.896Z,-83
2017-10-02T17:26:51.583Z,-84
2017-10-02T17:29:28.235Z,-84
2017-10-02T17:31:56.961Z,-84
2017-10-02T17:34:33.365Z,-84
2017-10-02T17:37:08.967Z,-83
2017-10-02T17:39:38.431Z,-84
2017-10-02T17:42:08.770Z,-84
2017-10-02T17:44:43.594Z,-83
2017-10-02T17:47:12.299Z,-83
2017-10-02T17:49:49.168Z,-84
2017-10-02T17:52:17.881Z,-83
2017-10-02T17:54:47.476Z,-83
2017-10-02T17:57:16.972Z,-83
2017-10-02T17:59:51.978Z,-85
2017-10-02T18:02:20.655Z,-84
2017-10-02T18:04:55.179Z,-86
2017-10-02T18:07:23.863Z,-86
2017-10-02T18:09:52.555Z,-86
2017-10-02T18:12:21.227Z,-86
2017-10-02T18:14:56.196Z,-86
2017-10-02T18:17:31.180Z,-86
2017-10-02T18:20:00.850Z,-86
2017-10-02T18:22:35.772Z,-86
2017-10-02T18:25:04.568Z,-86
2017-10-02T18:27:33.272Z,-86
2017-10-02T18:30:06.623Z,-86
2017-10-02T18:32:41.980Z,-87
2017-10-02T18:35:17.822Z,-85
2017-10-02T18:37:46.603Z,-86
2017-10-02T18:40:15.269Z,-86
2017-10-02T18:42:53.605Z,-86
2017-10-02T18:45:26.596Z,-88
2017-10-02T18:48:07.917Z,-87
2017-10-02T18:50:43.713Z,-88
2017-10-02T18:53:13.247Z,-87
2017-10-02T18:55:47.437Z,-87
2017-10-02T18:58:17.137Z,-88
2017-10-02T19:00:47.480Z,-87
2017-10-02T19:03:22.449Z,-87
2017-10-02T19:05:51.148Z,-88
2017-10-02T19:08:26.131Z,-87
2017-10-02T19:10:55.717Z,-86
2017-10-02T19:13:24.411Z,-87
2017-10-02T19:15:59.600Z,-87
2017-10-02T19:18:29.135Z,-87
2017-10-02T19:21:05.217Z,-86
2017-10-02T19:23:34.179Z,-85
2017-10-02T19:26:03.171Z,-87
2017-10-02T19:28:32.021Z,-88
2017-10-02T19:31:07.057Z,-86
2017-10-02T19:33:35.812Z,-87
2017-10-02T19:36:10.873Z,-89
2017-10-02T19:38:39.623Z,-87
2017-10-02T19:41:09.602Z,-87
2017-10-02T19:43:38.798Z,-86
2017-10-02T19:46:07.544Z,-87
2017-10-02T19:48:50.803Z,-87
2017-10-02T19:51:19.918Z,-90
2017-10-02T19:53:54.865Z,-88
2017-10-02T19:56:30.571Z,-89
2017-10-02T19:59:05.611Z,-88
2017-10-02T20:01:35.215Z,-87
2017-10-02T20:04:04.921Z,-87
2017-10-02T20:06:35.115Z,-87
2017-10-02T20:09:10.120Z,-87
2017-10-02T20:11:40.656Z,-87
2017-10-02T20:14:15.780Z,-87
2017-10-02T20:16:45.162Z,-88
2017-10-02T20:19:14.760Z,-87
2017-10-02T20:21:43.863Z,-87
2017-10-02T20:24:19.983Z,-87
2017-10-02T20:26:48.764Z,-87
2017-10-02T20:29:23.727Z,-87
2017-10-02T20:31:54.639Z,-87
2017-10-02T20:34:23.651Z,-87
2017-10-02T20:36:53.774Z,-89
2017-10-02T20:39:22.619Z,-87
2017-10-02T20:41:51.472Z,-87
2017-10-02T20:44:20.175Z,-88
2017-10-02T20:46:49.247Z,-88
2017-10-02T20:49:18.331Z,-89
2017-10-02T20:51:47.500Z,-88
2017-10-02T20:54:18.259Z,-87
2017-10-02T20:56:48.251Z,-87
2017-10-02T20:59:17.937Z,-89
2017-10-02T21:01:52.860Z,-88
2017-10-02T21:04:22.314Z,-88
2017-10-02T21:06:50.996Z,-88
2017-10-02T21:09:26.801Z,-87
2017-10-02T21:11:55.567Z,-88
2017-10-02T21:14:25.118Z,-87
2017-10-02T21:17:00.119Z,-86
2017-10-02T21:19:30.051Z,-87
2017-10-02T21:21:58.920Z,-88
2017-10-02T21:24:28.091Z,-87
2017-10-02T21:26:57.069Z,-89
2017-10-02T21:29:25.793Z,-90
2017-10-02T21:31:54.622Z,-90
2017-10-02T21:34:23.719Z,-90
2017-10-02T21:36:53.725Z,-89
2017-10-02T21:39:23.678Z,-89
2017-10-02T21:41:52.756Z,-89
2017-10-02T21:44:22.204Z,-90
2017-10-02T21:46:55.785Z,-89
2017-10-02T21:49:28.213Z,-89
2017-10-02T21:51:57.324Z,-89
2017-10-02T21:54:27.488Z,-90
2017-10-02T21:56:56.394Z,-89
2017-10-02T21:59:25.817Z,-87
2017-10-02T22:01:56.708Z,-88
2017-10-02T22:04:25.999Z,-87
2017-10-02T22:06:55.438Z,-88
2017-10-02T22:09:24.378Z,-88
2017-10-02T22:11:53.434Z,-88
2017-10-02T22:14:27.616Z,-90
2017-10-02T22:17:02.983Z,-88
2017-10-02T22:19:33.947Z,-88
2017-10-02T22:22:05.880Z,-88
2017-10-02T22:24:44.140Z,-88
2017-10-02T22:27:19.931Z,-88
2017-10-02T22:29:55.786Z,-88
2017-10-02T22:32:25.855Z,-89
2017-10-02T22:34:55.134Z,-88
2017-10-02T22:37:23.916Z,-88
2017-10-02T22:39:58.996Z,-88
2017-10-02T22:42:28.092Z,-88
2017-10-02T22:45:03.548Z,-88
2017-10-02T22:47:32.311Z,-88
2017-10-02T22:50:01.504Z,-87
2017-10-02T22:52:30.389Z,-88
2017-10-02T22:54:59.857Z,-88
2017-10-02T22:57:35.254Z,-88
2017-10-02T23:00:04.505Z,-88
2017-10-02T23:02:35.279Z,-88
2017-10-02T23:05:03.980Z,-88
2017-10-02T23:07:38.899Z,-88
2017-10-02T23:10:09.329Z,-88
2017-10-02T23:12:38.002Z,-88
2017-10-02T23:15:06.749Z,-87
2017-10-02T23:17:35.970Z,-87
2017-10-02T23:20:08.684Z,-88
2017-10-02T23:22:41.445Z,-88
2017-10-02T23:25:10.382Z,-88
2017-10-02T23:27:40.020Z,-88
2017-10-02T23:30:14.985Z,-89
2017-10-02T23:32:53.302Z,-89
2017-10-02T23:35:21.977Z,-88
2017-10-02T23:37:50.678Z,-88
2017-10-02T23:40:21.352Z,-89
2017-10-02T23:42:50.044Z,-89
2017-10-02T23:45:18.730Z,-89
2017-10-02T23:47:47.569Z,-89
2017-10-02T23:50:17.276Z,-89
2017-10-02T23:52:46.928Z,-89
2017-10-02T23:55:16.702Z,-88
2017-10-02T23:57:46.343Z,-89
